createdAt,value
2017-12-23T00:01:39.799Z,21.47
2017-12-23T00:04:08.132Z,24.10
2017-12-23T00:06:36.518Z,26.07
2017-12-23T00:09:04.896Z,23.47
2017-12-23T00:11:33.255Z,24.23
2017-12-23T00:14:01.610Z,22.67
2017-12-23T00:18:58.312Z,27.57
2017-12-23T00:21:26.661Z,27.40
2017-12-23T00:23:55.016Z,24.30
2017-12-23T00:26:23.350Z,26.40
2017-12-23T00:28:51.679Z,29.47
2017-12-23T00:31:20.047Z,25.70
2017-12-23T00:33:48.351Z,32.83
2017-12-23T00:36:16.700Z,28.13
2017-12-23T00:38:45.029Z,30.50
2017-12-23T00:41:13.351Z,28.23
2017-12-23T00:43:41.993Z,32.20
2017-12-23T00:46:10.374Z,33.47
2017-12-23T00:48:38.712Z,30.00
2017-12-23T00:51:07.034Z,35.20
2017-12-23T00:53:35.393Z,40.80
2017-12-23T00:56:03.709Z,31.50
2017-12-23T00:58:32.020Z,37.63
2017-12-23T01:01:00.400Z,37.23
2017-12-23T01:03:28.711Z,34.00
2017-12-23T01:05:57.053Z,41.47
2017-12-23T01:08:25.413Z,33.73
2017-12-23T01:10:53.778Z,35.13
2017-12-23T01:13:22.054Z,32.63
2017-12-23T01:15:50.429Z,31.30
2017-12-23T01:18:18.731Z,36.20
2017-12-23T01:20:47.316Z,28.27
2017-12-23T01:23:15.665Z,34.77
2017-12-23T01:25:43.999Z,28.80
2017-12-23T01:28:12.312Z,27.50
2017-12-23T01:30:40.649Z,30.70
2017-12-23T01:33:08.960Z,34.80
2017-12-23T01:35:37.280Z,31.40
2017-12-23T01:38:05.615Z,40.00
2017-12-23T01:40:33.936Z,26.03
2017-12-23T01:43:02.273Z,30.10
2017-12-23T01:45:30.592Z,30.87
2017-12-23T01:47:58.907Z,27.20
2017-12-23T01:50:27.235Z,32.00
2017-12-23T01:52:55.581Z,31.07
2017-12-23T01:55:23.928Z,26.40
2017-12-23T01:57:52.260Z,26.83
2017-12-23T02:00:20.575Z,28.23
2017-12-23T02:02:48.921Z,26.43
2017-12-23T02:05:17.242Z,27.47
2017-12-23T02:07:45.594Z,29.50
2017-12-23T02:10:13.916Z,30.30
2017-12-23T02:12:42.272Z,31.67
2017-12-23T02:15:10.591Z,29.20
2017-12-23T02:17:38.957Z,28.63
2017-12-23T02:20:07.283Z,30.87
2017-12-23T02:22:35.615Z,28.67
2017-12-23T02:25:03.964Z,27.50
2017-12-23T02:27:32.302Z,33.80
2017-12-23T02:30:00.620Z,31.97
2017-12-23T02:32:28.968Z,33.47
2017-12-23T02:34:57.312Z,31.10
2017-12-23T02:37:25.667Z,30.80
2017-12-23T02:39:53.999Z,29.27
2017-12-23T02:42:22.407Z,37.33
2017-12-23T02:44:50.737Z,36.13
2017-12-23T02:47:19.077Z,34.90
2017-12-23T02:49:47.538Z,29.33
2017-12-23T02:52:15.849Z,28.47
2017-12-23T02:54:44.165Z,34.20
2017-12-23T02:57:12.511Z,33.43
2017-12-23T02:59:40.815Z,28.07
2017-12-23T03:02:10.046Z,33.30
2017-12-23T03:04:38.385Z,37.70
2017-12-23T03:07:06.735Z,38.57
2017-12-23T03:09:35.043Z,35.20
2017-12-23T03:12:03.380Z,34.07
2017-12-23T03:14:31.707Z,43.80
2017-12-23T03:17:00.025Z,35.23
2017-12-23T03:19:28.513Z,34.07
2017-12-23T03:21:56.843Z,36.33
2017-12-23T03:24:25.165Z,37.57
2017-12-23T03:26:53.499Z,51.40
2017-12-23T03:29:21.807Z,32.47
2017-12-23T03:31:50.128Z,47.00
2017-12-23T03:34:18.446Z,47.70
2017-12-23T03:36:46.923Z,44.03
2017-12-23T03:39:15.243Z,39.50
2017-12-23T03:41:43.560Z,38.73
2017-12-23T03:44:11.895Z,44.30
2017-12-23T03:46:40.212Z,46.23
2017-12-23T03:49:08.597Z,40.10
2017-12-23T03:51:36.915Z,53.57
2017-12-23T03:54:05.211Z,46.10
2017-12-23T03:56:33.556Z,46.60
2017-12-23T03:59:01.879Z,40.57
2017-12-23T04:01:30.295Z,39.57
2017-12-23T04:03:58.599Z,46.93
2017-12-23T04:06:26.963Z,46.77
2017-12-23T04:08:55.300Z,38.77
2017-12-23T04:11:23.647Z,41.80
2017-12-23T04:13:52.015Z,45.33
2017-12-23T04:16:20.342Z,43.43
2017-12-23T04:18:48.668Z,40.73
2017-12-23T04:21:17.001Z,39.40
2017-12-23T04:23:45.346Z,45.97
2017-12-23T04:26:13.734Z,45.80
2017-12-23T04:28:42.087Z,46.30
2017-12-23T04:31:10.443Z,40.17
2017-12-23T04:33:38.761Z,42.47
2017-12-23T04:36:07.080Z,41.53
2017-12-23T04:38:35.409Z,44.97
2017-12-23T04:41:03.812Z,46.63
2017-12-23T04:43:32.088Z,42.93
2017-12-23T04:46:00.430Z,34.63
2017-12-23T04:48:28.739Z,34.17
2017-12-23T04:50:57.073Z,39.17
2017-12-23T04:53:25.422Z,37.13
2017-12-23T04:55:53.756Z,39.50
2017-12-23T04:58:22.104Z,44.50
2017-12-23T05:00:50.431Z,44.20
2017-12-23T05:03:18.756Z,32.93
2017-12-23T05:05:47.098Z,42.23
2017-12-23T05:08:15.437Z,41.23
2017-12-23T05:10:43.827Z,38.33
2017-12-23T05:13:12.165Z,38.20
2017-12-23T05:15:40.532Z,37.67
2017-12-23T05:18:08.860Z,35.67
2017-12-23T05:20:37.164Z,40.00
2017-12-23T05:23:05.496Z,36.93
2017-12-23T05:25:33.814Z,41.17
2017-12-23T05:28:02.139Z,40.63
2017-12-23T05:30:30.467Z,39.20
2017-12-23T05:32:58.801Z,35.57
2017-12-23T05:35:27.143Z,42.97
2017-12-23T05:37:55.506Z,40.77
2017-12-23T05:40:23.817Z,36.70
2017-12-23T05:42:52.163Z,37.07
2017-12-23T05:45:20.491Z,34.30
2017-12-23T05:47:48.819Z,36.13
2017-12-23T05:50:18.004Z,45.67
2017-12-23T05:52:46.299Z,39.23
2017-12-23T05:55:14.678Z,36.87
2017-12-23T05:57:42.996Z,37.27
2017-12-23T06:00:11.339Z,36.57
2017-12-23T06:02:39.801Z,31.47
2017-12-23T06:05:08.129Z,38.40
2017-12-23T06:07:36.444Z,36.20
2017-12-23T06:10:04.760Z,34.10
2017-12-23T06:12:33.076Z,35.03
2017-12-23T06:15:01.418Z,34.40
2017-12-23T06:17:29.725Z,33.10
2017-12-23T06:19:58.059Z,27.97
2017-12-23T06:22:26.388Z,35.30
2017-12-23T06:24:54.704Z,32.63
2017-12-23T06:27:23.059Z,33.90
2017-12-23T06:29:51.413Z,27.87
2017-12-23T06:32:19.747Z,33.63
2017-12-23T06:34:48.073Z,31.37
2017-12-23T06:37:16.389Z,36.30
2017-12-23T06:39:44.745Z,34.87
2017-12-23T06:42:13.110Z,33.70
2017-12-23T06:44:41.432Z,29.73
2017-12-23T06:47:09.763Z,29.67
2017-12-23T06:49:38.070Z,34.90
2017-12-23T06:52:06.544Z,31.20
2017-12-23T06:54:34.877Z,32.47
2017-12-23T06:57:03.204Z,29.37
2017-12-23T06:59:31.547Z,32.63
2017-12-23T07:01:59.860Z,30.10
2017-12-23T07:04:28.237Z,32.73
2017-12-23T07:06:56.567Z,35.57
2017-12-23T07:09:24.893Z,30.23
2017-12-23T07:11:53.238Z,27.60
2017-12-23T07:14:22.883Z,31.17
2017-12-23T07:16:51.225Z,28.70
2017-12-23T07:19:19.550Z,31.47
2017-12-23T07:21:48.268Z,31.50
2017-12-23T07:24:16.605Z,29.07
2017-12-23T07:26:44.929Z,32.40
2017-12-23T07:29:13.307Z,29.17
2017-12-23T07:31:41.632Z,36.37
2017-12-23T07:34:09.943Z,31.57
2017-12-23T07:36:38.283Z,35.37
2017-12-23T07:39:06.982Z,29.90
2017-12-23T07:41:35.439Z,26.03
2017-12-23T07:44:03.773Z,29.83
2017-12-23T07:46:32.109Z,31.63
2017-12-23T07:49:00.488Z,27.63
2017-12-23T07:51:28.868Z,34.00
2017-12-23T07:53:57.333Z,30.80
2017-12-23T07:56:25.653Z,34.80
2017-12-23T07:58:54.806Z,24.90
2017-12-23T08:01:23.169Z,28.10
2017-12-23T08:03:51.477Z,31.30
2017-12-23T08:06:19.876Z,30.07
2017-12-23T08:08:48.197Z,29.13
2017-12-23T08:11:16.518Z,26.50
2017-12-23T08:13:44.871Z,26.07
2017-12-23T08:16:13.250Z,27.17
2017-12-23T08:18:41.707Z,28.80
2017-12-23T08:21:10.079Z,33.10
2017-12-23T08:23:38.454Z,43.03
2017-12-23T08:26:06.926Z,30.17
2017-12-23T08:28:35.256Z,30.27
2017-12-23T08:31:03.625Z,28.97
2017-12-23T08:33:31.952Z,31.17
2017-12-23T08:36:00.338Z,28.57
2017-12-23T08:38:31.721Z,34.20
2017-12-23T08:41:00.109Z,27.30
2017-12-23T08:43:28.433Z,25.50
2017-12-23T08:45:56.823Z,29.57
2017-12-23T08:48:25.231Z,29.20
2017-12-23T08:50:53.553Z,27.07
2017-12-23T08:53:22.187Z,28.10
2017-12-23T08:55:50.737Z,27.17
2017-12-23T08:58:19.096Z,29.37
2017-12-23T09:00:47.881Z,24.40
2017-12-23T09:03:16.273Z,27.20
2017-12-23T09:05:44.714Z,26.00
2017-12-23T09:08:14.145Z,25.27
2017-12-23T09:10:42.501Z,23.83
2017-12-23T09:13:10.857Z,30.90
2017-12-23T09:15:39.244Z,28.20
2017-12-23T09:18:07.656Z,23.77
2017-12-23T09:20:36.009Z,28.83
2017-12-23T09:23:04.426Z,22.40
2017-12-23T09:25:33.278Z,24.00
2017-12-23T09:28:01.686Z,20.60
2017-12-23T09:30:31.570Z,27.30
2017-12-23T09:33:00.013Z,23.07
2017-12-23T09:35:28.408Z,23.60
2017-12-23T09:37:56.738Z,22.53
2017-12-23T09:40:25.144Z,19.43
2017-12-23T09:42:53.660Z,20.30
2017-12-23T09:45:22.056Z,25.53
2017-12-23T09:47:50.493Z,22.50
2017-12-23T09:50:18.900Z,20.73
2017-12-23T09:52:47.225Z,20.00
2017-12-23T09:55:15.573Z,21.93
2017-12-23T09:57:43.956Z,21.40
2017-12-23T10:00:12.309Z,24.03
2017-12-23T10:02:40.640Z,20.88
2017-12-23T10:05:09.141Z,20.47
2017-12-23T10:07:37.627Z,20.40
2017-12-23T10:10:07.664Z,20.57
2017-12-23T10:12:36.008Z,205.23
2017-12-23T10:15:05.265Z,40.27
2017-12-23T10:17:35.597Z,20.57
2017-12-23T10:20:04.242Z,18.13
2017-12-23T10:22:32.737Z,23.57
2017-12-23T10:25:01.285Z,21.40
2017-12-23T10:27:29.783Z,20.17
2017-12-23T10:29:58.558Z,18.00
2017-12-23T10:32:42.621Z,19.80
2017-12-23T10:35:11.037Z,18.73
2017-12-23T10:37:40.448Z,20.57
2017-12-23T10:40:09.797Z,18.73
2017-12-23T10:45:10.799Z,23.20
2017-12-23T10:47:39.116Z,16.83
2017-12-23T10:50:07.562Z,20.53
2017-12-23T10:55:29.201Z,16.90
2017-12-23T10:57:58.448Z,19.10
2017-12-23T11:00:26.972Z,15.13
2017-12-23T11:05:28.137Z,20.37
2017-12-23T11:07:56.533Z,17.40
2017-12-23T11:10:25.086Z,14.13
2017-12-23T11:12:53.790Z,18.43
2017-12-23T11:17:55.898Z,13.27
2017-12-23T11:20:24.596Z,12.90
2017-12-23T11:22:53.097Z,15.90
2017-12-23T11:25:21.463Z,39.17
2017-12-23T11:27:50.474Z,14.93
2017-12-23T11:30:18.887Z,13.00
2017-12-23T11:32:47.648Z,15.50
2017-12-23T11:35:16.123Z,11.80
2017-12-23T11:37:44.999Z,11.77
2017-12-23T11:40:14.005Z,11.23
2017-12-23T11:42:42.351Z,11.80
2017-12-23T11:45:11.497Z,13.20
2017-12-23T11:47:40.057Z,15.30
2017-12-23T11:50:08.463Z,21.43
2017-12-23T11:52:36.927Z,11.67
2017-12-23T11:55:08.940Z,14.63
2017-12-23T11:57:38.370Z,13.73
2017-12-23T12:00:07.391Z,19.87
2017-12-23T12:02:35.840Z,18.77
2017-12-23T12:05:04.231Z,11.70
2017-12-23T12:07:32.638Z,12.90
2017-12-23T12:10:01.051Z,19.13
2017-12-23T12:12:29.506Z,11.33
2017-12-23T12:14:57.813Z,13.50
2017-12-23T12:17:26.262Z,11.23
2017-12-23T12:19:54.608Z,13.50
2017-12-23T12:22:23.097Z,15.20
2017-12-23T12:24:51.926Z,10.50
2017-12-23T12:27:20.321Z,8.80
2017-12-23T12:29:49.386Z,12.30
2017-12-23T12:32:18.721Z,11.33
2017-12-23T12:34:47.117Z,14.83
2017-12-23T12:37:15.488Z,11.10
2017-12-23T12:39:43.935Z,10.00
2017-12-23T12:42:15.961Z,8.53
2017-12-23T12:44:44.372Z,12.13
2017-12-23T12:47:12.689Z,17.30
2017-12-23T12:49:41.158Z,8.63
2017-12-23T12:52:09.600Z,8.80
2017-12-23T12:54:38.715Z,9.40
2017-12-23T12:57:08.181Z,9.23
2017-12-23T12:59:36.725Z,7.90
2017-12-23T13:02:05.510Z,8.00
2017-12-23T13:04:34.022Z,7.40
2017-12-23T13:07:02.458Z,11.37
2017-12-23T13:09:31.469Z,7.30
2017-12-23T13:11:59.879Z,12.03
2017-12-23T13:14:30.274Z,10.40
2017-12-23T13:16:58.699Z,13.40
2017-12-23T13:19:27.033Z,11.80
2017-12-23T13:21:55.396Z,8.50
2017-12-23T13:24:23.770Z,7.90
2017-12-23T13:26:52.101Z,6.47
2017-12-23T13:29:20.495Z,7.67
2017-12-23T13:31:48.956Z,9.97
2017-12-23T13:34:17.736Z,9.43
2017-12-23T13:36:46.127Z,10.60
2017-12-23T13:39:14.496Z,10.93
2017-12-23T13:41:42.963Z,11.00
2017-12-23T13:44:11.323Z,10.30
2017-12-23T13:46:39.700Z,7.23
2017-12-23T13:49:08.114Z,16.73
2017-12-23T13:51:38.638Z,8.90
2017-12-23T13:54:07.076Z,9.83
2017-12-23T13:56:35.491Z,9.47
2017-12-23T13:59:03.868Z,10.30
2017-12-23T14:01:32.296Z,12.17
2017-12-23T14:04:02.063Z,8.90
2017-12-23T14:06:30.449Z,9.63
2017-12-23T14:08:59.054Z,9.13
2017-12-23T14:11:27.594Z,10.33
2017-12-23T14:13:55.918Z,17.50
2017-12-23T14:16:24.313Z,8.70
2017-12-23T14:18:52.700Z,6.57
2017-12-23T14:21:21.265Z,9.83
2017-12-23T14:23:49.668Z,8.57
2017-12-23T14:26:18.260Z,12.10
2017-12-23T14:28:46.815Z,9.37
2017-12-23T14:31:15.388Z,6.83
2017-12-23T14:33:43.894Z,11.97
2017-12-23T14:36:12.351Z,8.03
2017-12-23T14:41:13.799Z,10.57
2017-12-23T14:43:42.570Z,10.10
2017-12-23T14:46:12.238Z,8.73
2017-12-23T14:48:40.663Z,8.80
2017-12-23T14:51:09.214Z,9.03
2017-12-23T14:53:37.758Z,9.20
2017-12-23T14:56:06.089Z,7.43
2017-12-23T14:58:35.173Z,8.80
2017-12-23T15:01:04.301Z,9.23
2017-12-23T15:03:35.766Z,12.00
2017-12-23T15:06:05.937Z,6.60
2017-12-23T15:08:34.359Z,9.83
2017-12-23T15:11:02.682Z,7.60
2017-12-23T15:13:31.032Z,9.87
2017-12-23T15:15:59.927Z,8.17
2017-12-23T15:18:29.307Z,12.37
2017-12-23T15:20:57.767Z,11.60
2017-12-23T15:23:30.401Z,9.37
2017-12-23T15:25:59.137Z,9.93
2017-12-23T15:28:31.390Z,10.50
2017-12-23T15:31:01.979Z,11.13
2017-12-23T15:33:31.496Z,9.50
2017-12-23T15:36:00.445Z,19.70
2017-12-23T15:38:29.658Z,13.90
2017-12-23T15:40:58.088Z,13.70
2017-12-23T15:43:26.549Z,10.77
2017-12-23T15:45:55.786Z,9.83
2017-12-23T15:48:24.236Z,9.87
2017-12-23T15:50:53.208Z,9.87
2017-12-23T15:53:22.530Z,11.10
2017-12-23T15:55:50.987Z,11.13
2017-12-23T15:58:19.591Z,8.67
2017-12-23T16:03:20.561Z,11.87
2017-12-23T16:05:49.079Z,11.13
2017-12-23T16:08:18.269Z,12.53
2017-12-23T16:10:46.655Z,12.97
2017-12-23T16:13:17.459Z,14.80
2017-12-23T16:15:46.052Z,9.70
2017-12-23T16:18:14.931Z,12.00
2017-12-23T16:25:48.315Z,10.60
2017-12-23T16:30:50.603Z,10.20
2017-12-23T16:33:19.595Z,9.50
2017-12-23T16:35:48.003Z,11.77
2017-12-23T16:48:27.331Z,17.00
2017-12-23T16:50:58.270Z,12.27
2017-12-23T16:53:27.382Z,13.90
2017-12-23T17:01:01.724Z,14.00
2017-12-23T17:03:30.428Z,14.47
2017-12-23T17:05:59.059Z,16.73
2017-12-23T17:13:32.618Z,18.20
2017-12-23T17:23:39.969Z,16.37
2017-12-23T17:26:08.552Z,16.00
2017-12-23T17:28:49.902Z,13.77
2017-12-23T17:31:19.180Z,15.80
2017-12-23T17:36:21.521Z,16.57
2017-12-23T17:38:50.290Z,18.10
2017-12-23T17:41:19.221Z,16.07
2017-12-23T17:46:22.426Z,14.43
2017-12-23T17:49:07.719Z,16.60
2017-12-23T17:51:36.295Z,13.00
2017-12-23T17:54:05.694Z,16.03
2017-12-23T17:56:34.310Z,19.00
2017-12-23T17:59:02.700Z,16.83
2017-12-23T18:04:03.911Z,20.60
2017-12-23T18:06:35.024Z,18.00
2017-12-23T18:09:03.541Z,19.57
2017-12-23T18:21:47.507Z,18.53
2017-12-23T18:24:16.870Z,19.17
2017-12-23T18:26:47.149Z,24.53
2017-12-23T18:31:51.100Z,23.90
2017-12-23T18:36:57.097Z,19.47
2017-12-23T18:39:28.350Z,18.50
2017-12-23T18:57:59.024Z,19.47
2017-12-23T19:03:02.649Z,17.27
2017-12-23T19:05:36.749Z,19.30
2017-12-23T19:08:06.285Z,21.17
2017-12-23T19:13:10.148Z,21.73
2017-12-23T19:23:22.695Z,22.40
2017-12-23T19:28:26.046Z,21.30
2017-12-23T19:33:30.262Z,17.03
2017-12-23T19:35:58.785Z,17.07
2017-12-23T19:38:29.543Z,17.00
2017-12-23T19:40:59.179Z,19.50
2017-12-23T19:43:49.324Z,17.17
2017-12-23T19:46:17.790Z,19.10
2017-12-23T19:48:46.815Z,17.30
2017-12-23T19:51:15.328Z,16.43
2017-12-23T19:53:43.725Z,20.23
2017-12-23T19:56:13.200Z,15.90
2017-12-23T20:01:14.637Z,17.00
2017-12-23T20:03:43.344Z,20.50
2017-12-23T20:06:13.763Z,19.10
2017-12-23T20:11:14.772Z,16.87
2017-12-23T20:13:54.632Z,15.47
2017-12-23T20:16:23.318Z,20.63
2017-12-23T20:21:28.996Z,16.07
2017-12-23T20:29:04.407Z,18.43
2017-12-23T20:31:35.302Z,20.07
2017-12-23T20:36:38.025Z,24.30
2017-12-23T20:41:41.872Z,23.57
2017-12-23T20:46:46.415Z,26.07
2017-12-23T20:51:51.402Z,31.60
2017-12-23T20:54:19.957Z,28.90
2017-12-23T20:56:49.995Z,25.33
2017-12-23T20:59:19.143Z,29.83
2017-12-23T21:01:48.438Z,31.70
2017-12-23T21:04:16.892Z,26.23
2017-12-23T21:06:45.327Z,27.40
2017-12-23T21:09:15.904Z,29.10
2017-12-23T21:14:17.507Z,27.97
2017-12-23T21:16:50.457Z,27.00
2017-12-23T21:19:19.229Z,29.73
2017-12-23T21:21:48.756Z,31.73
2017-12-23T21:26:51.019Z,26.77
2017-12-23T21:29:19.760Z,27.63
2017-12-23T21:31:49.037Z,37.70
2017-12-23T21:34:17.527Z,37.33
2017-12-23T21:36:47.471Z,30.90
2017-12-23T21:39:16.006Z,30.83
2017-12-23T21:41:44.510Z,38.00
2017-12-23T21:44:13.051Z,30.57
2017-12-23T21:46:41.505Z,31.80
2017-12-23T21:49:10.322Z,38.50
2017-12-23T21:51:40.310Z,33.83
2017-12-23T21:56:42.718Z,35.33
2017-12-23T21:59:11.198Z,33.93
2017-12-23T22:01:39.704Z,30.10
2017-12-23T22:04:08.653Z,32.53
2017-12-23T22:06:37.192Z,36.10
2017-12-23T22:09:06.263Z,36.30
2017-12-23T22:11:34.801Z,30.90
2017-12-23T22:14:03.177Z,32.60
2017-12-23T22:16:31.752Z,32.13
2017-12-23T22:19:00.198Z,31.90
2017-12-23T22:21:28.616Z,29.83
2017-12-23T22:23:56.995Z,31.60
2017-12-23T22:26:25.460Z,34.17
2017-12-23T22:28:53.983Z,31.83
2017-12-23T22:31:22.749Z,30.93
2017-12-23T22:33:51.161Z,32.23
2017-12-23T22:36:19.618Z,34.73
2017-12-23T22:38:48.544Z,36.33
2017-12-23T22:41:17.464Z,31.40
2017-12-23T22:43:45.989Z,33.73
2017-12-23T22:46:14.325Z,29.67
2017-12-23T22:48:43.152Z,28.97
2017-12-23T22:51:11.592Z,34.90
2017-12-23T22:53:40.858Z,31.00
2017-12-23T22:56:09.233Z,29.03
2017-12-23T22:58:37.624Z,28.87
2017-12-23T23:01:06.016Z,26.33
2017-12-23T23:06:06.835Z,32.50
2017-12-23T23:08:35.272Z,31.17
2017-12-23T23:11:04.026Z,24.53
2017-12-23T23:13:32.414Z,30.20
2017-12-23T23:16:00.983Z,26.87
2017-12-23T23:18:29.373Z,29.50
2017-12-23T23:26:02.986Z,30.93
2017-12-23T23:28:31.372Z,26.33
2017-12-23T23:30:59.773Z,26.83
2017-12-23T23:33:28.222Z,29.30
2017-12-23T23:35:56.718Z,30.07
2017-12-23T23:40:58.520Z,31.40
2017-12-23T23:43:26.963Z,26.43
2017-12-23T23:45:55.338Z,27.80
2017-12-23T23:48:23.778Z,27.83
2017-12-23T23:50:52.610Z,28.73
2017-12-23T23:53:21.069Z,30.50
2017-12-23T23:55:49.399Z,29.40
2017-12-23T23:58:17.841Z,31.40
